Reeve, Indiana
Current Conditions -  °F | °C
As of 3:35 PM on Saturday 20 Dec 2014 (Local Time) from KDCY Reporting Station
Overcast Overcast  
Wind Chill: 34°   Ceiling: 6000
Heat Index: 34°   Visibility: 10mi
Dew Point: 24°   Wind: 0mph
Humidity: 66%   Direction: NA
Pressure: 30.28"   Gusts: NA
Location:  38.6074°N, 86.9234°W
Report Text: KDCY 202135Z AUTO 00000KT 10SM OVC060 01/M05 A3028 RMK AO2 T00101047
Loading
Personal Weather Stations






























Interactive Weather Map New forecast layout! Learn more

10-Day Weather Forecast

Advertisements
Track Severe Weather on mobile